Inmocean — ZCXX2 — position and weather

sailwx.info

Track history (hours):
 
Tides and Currents Weather Stations Pressure Air Temp Water Temp Dewpoint Dewpoint Depression Visibility Wind Speed Wind Dir Waves Ship Positions

Inmocean

Last reported at 2014-Aug-18 07:12 UTC. Time now 2014-Aug-30 06:28 UTC.
Position N 39°34' E 002°38'.
Warning: this ship's position is 11 days out of date.

Type: Sailing vessel. MMSI: 319120000.

Date/timePositionNaut miles runAvg speedWind from/ knotsBaromVisibWave heightAir tempDewpointWater temp
2014-Aug-18 07:12N 39°34' E 002°38'0 0.0
2014-Aug-18 06:33N 39°34' E 002°38'0 0.0
2014-Aug-18 05:33N 39°34' E 002°38'0 0.0
2014-Aug-18 04:33N 39°34' E 002°38'0 0.0
2014-Aug-18 03:33N 39°34' E 002°38'0 0.0
2014-Aug-18 02:33N 39°34' E 002°38'0 0.0
2014-Aug-18 01:33N 39°34' E 002°38'0 0.0
2014-Aug-18 00:30N 39°34' E 002°38'0 0.0
2014-Aug-17 18:33N 39°34' E 002°38'0 0.0
2014-Aug-17 17:33N 39°34' E 002°38'0 0.0
2014-Aug-17 16:33N 39°34' E 002°38'0 0.0
2014-Aug-17 15:33N 39°34' E 002°38'0 0.0
2014-Aug-17 14:33N 39°34' E 002°38'0 0.0
2014-Aug-17 13:33N 39°34' E 002°38'0 0.0
2014-Aug-17 12:33N 39°34' E 002°38'0 0.0
2014-Aug-17 11:33N 39°34' E 002°38'0 0.0
2014-Aug-17 10:33N 39°34' E 002°38'0 0.0
2014-Aug-17 09:33N 39°34' E 002°38'0 0.0
2014-Aug-17 08:33N 39°34' E 002°38'0 0.0
2014-Aug-17 07:33N 39°34' E 002°38'0 0.0
2014-Aug-17 06:33N 39°34' E 002°38'0 0.0
2014-Aug-17 05:33N 39°34' E 002°38'0 0.0
2014-Aug-17 04:33N 39°34' E 002°38'0 0.0
2014-Aug-17 03:33N 39°34' E 002°38'0 0.0
2014-Aug-17 02:33N 39°34' E 002°38'0 0.0
2014-Aug-17 01:33N 39°34' E 002°38'0 0.0
2014-Aug-17 00:33N 39°34' E 002°38'0 0.0
2014-Aug-16 23:33N 39°34' E 002°38'0 0.0
2014-Aug-16 22:33N 39°34' E 002°38'0 0.0
2014-Aug-16 21:33N 39°34' E 002°38'0 0.0
2014-Aug-16 20:33N 39°34' E 002°38'0 0.0
2014-Aug-16 19:33N 39°34' E 002°38'0 0.0
2014-Aug-16 18:33N 39°34' E 002°38'  
2014-Aug-11 21:23N 38°44' E 001°28'0 0.0
2014-Aug-11 20:17N 38°44' E 001°28'0 0.0
2014-Aug-11 19:29N 38°44' E 001°28'0 0.1
2014-Aug-11 18:33N 38°44' E 001°28'4 3.5
2014-Aug-11 17:29N 38°41' E 001°31'0 0.0
2014-Aug-11 13:13N 38°41' E 001°31'0 0.0
2014-Aug-11 12:31N 38°41' E 001°31'9 8.8
2014-Aug-11 11:28N 38°48' E 001°40'9 9.6
2014-Aug-11 10:32N 38°52' E 001°49'11 9.8
2014-Aug-11 09:25N 38°57' E 002°02'9 9.8
2014-Aug-11 08:28N 39°02' E 002°12'9 9.6
2014-Aug-11 07:33N 39°06' E 002°22'9 9.5
2014-Aug-11 06:34N 39°10' E 002°33'10 9.6
2014-Aug-11 05:33N 39°15' E 002°44'12 0.6
2014-Aug-10 10:10N 39°21' E 002°58'14 8.5
2014-Aug-10 08:33N 39°26' E 002°42'  
Track history (hours):
 
Tides and Currents Weather Stations Pressure Air Temp Water Temp Dewpoint Dewpoint Depression Visibility Wind Speed Wind Dir Waves Ship Positions

Inmocean

Last reported at 2014-Aug-18 07:12 UTC. Time now 2014-Aug-30 06:28 UTC.
Position N 39°34' E 002°38'.
Warning: this ship's position is 11 days out of date.

Type: Sailing vessel. MMSI: 319120000.

Date/timePositionNaut miles runAvg speedWind from/ knotsBaromVisibWave heightAir tempDewpointWater temp
2014-Aug-18 07:12N 39°34' E 002°38'0 0.0
2014-Aug-18 06:33N 39°34' E 002°38'0 0.0
2014-Aug-18 05:33N 39°34' E 002°38'0 0.0
2014-Aug-18 04:33N 39°34' E 002°38'0 0.0
2014-Aug-18 03:33N 39°34' E 002°38'0 0.0
2014-Aug-18 02:33N 39°34' E 002°38'0 0.0
2014-Aug-18 01:33N 39°34' E 002°38'0 0.0
2014-Aug-18 00:30N 39°34' E 002°38'0 0.0
2014-Aug-17 18:33N 39°34' E 002°38'0 0.0
2014-Aug-17 17:33N 39°34' E 002°38'0 0.0
2014-Aug-17 16:33N 39°34' E 002°38'0 0.0
2014-Aug-17 15:33N 39°34' E 002°38'0 0.0
2014-Aug-17 14:33N 39°34' E 002°38'0 0.0
2014-Aug-17 13:33N 39°34' E 002°38'0 0.0
2014-Aug-17 12:33N 39°34' E 002°38'0 0.0
2014-Aug-17 11:33N 39°34' E 002°38'0 0.0
2014-Aug-17 10:33N 39°34' E 002°38'0 0.0
2014-Aug-17 09:33N 39°34' E 002°38'0 0.0
2014-Aug-17 08:33N 39°34' E 002°38'0 0.0
2014-Aug-17 07:33N 39°34' E 002°38'0 0.0
2014-Aug-17 06:33N 39°34' E 002°38'0 0.0
2014-Aug-17 05:33N 39°34' E 002°38'0 0.0
2014-Aug-17 04:33N 39°34' E 002°38'0 0.0
2014-Aug-17 03:33N 39°34' E 002°38'0 0.0
2014-Aug-17 02:33N 39°34' E 002°38'0 0.0
2014-Aug-17 01:33N 39°34' E 002°38'0 0.0
2014-Aug-17 00:33N 39°34' E 002°38'0 0.0
2014-Aug-16 23:33N 39°34' E 002°38'0 0.0
2014-Aug-16 22:33N 39°34' E 002°38'0 0.0
2014-Aug-16 21:33N 39°34' E 002°38'0 0.0
2014-Aug-16 20:33N 39°34' E 002°38'0 0.0
2014-Aug-16 19:33N 39°34' E 002°38'0 0.0
2014-Aug-16 18:33N 39°34' E 002°38'  
2014-Aug-11 21:23N 38°44' E 001°28'0 0.0
2014-Aug-11 20:17N 38°44' E 001°28'0 0.0
2014-Aug-11 19:29N 38°44' E 001°28'0 0.1
2014-Aug-11 18:33N 38°44' E 001°28'4 3.5
2014-Aug-11 17:29N 38°41' E 001°31'0 0.0
2014-Aug-11 13:13N 38°41' E 001°31'0 0.0
2014-Aug-11 12:31N 38°41' E 001°31'9 8.8
2014-Aug-11 11:28N 38°48' E 001°40'9 9.6
2014-Aug-11 10:32N 38°52' E 001°49'11 9.8
2014-Aug-11 09:25N 38°57' E 002°02'9 9.8
2014-Aug-11 08:28N 39°02' E 002°12'9 9.6
2014-Aug-11 07:33N 39°06' E 002°22'9 9.5
2014-Aug-11 06:34N 39°10' E 002°33'10 9.6
2014-Aug-11 05:33N 39°15' E 002°44'12 0.6
2014-Aug-10 10:10N 39°21' E 002°58'14 8.5
2014-Aug-10 08:33N 39°26' E 002°42'  

Dump ship's entire track history